Time;durP1;ratioP1;P1;durP2;ratioP2;P2;SDS_P1;SDS_P2;PMS_P1;PMS_P2;Temp;Humidity;BMP_temperature;BMP_pressure;BME280_temperature;BME280_humidity;BME280_pressure;Samples;Min_cycle;Max_cycle;Signal;HPM_P1;HPM_P2
2023/06/09 00:00:21;;;;;;;9.30;5.40;;;;;;;19.59;56.37;100388.89;105710;1253;64952;-77
2023/06/09 00:02:50;;;;;;;7.50;5.10;;;;;;;19.55;56.53;100388.52;105877;1253;60402;-77
2023/06/09 00:05:18;;;;;;;6.40;5.40;;;;;;;19.52;56.65;100384.41;105785;1253;62488;-77
2023/06/09 00:07:47;;;;;;;7.30;5.10;;;;;;;19.47;56.73;100380.66;105910;1253;60368;-77
2023/06/09 00:10:14;;;;;;;7.20;5.20;;;;;;;19.42;56.88;100381.04;105872;1253;60451;-77
2023/06/09 00:12:41;;;;;;;8.40;5.30;;;;;;;19.39;56.93;100381.19;105593;1258;65015;-78
2023/06/09 00:15:11;;;;;;;6.20;5.10;;;;;;;19.37;56.90;100378.42;106657;1253;60893;-77
2023/06/09 00:17:39;;;;;;;6.80;4.80;;;;;;;19.34;56.90;100374.16;106742;1254;62819;-77
2023/06/09 00:20:09;;;;;;;9.30;4.80;;;;;;;19.31;56.94;100370.61;106173;1254;60382;-77
2023/06/09 00:22:42;;;;;;;6.60;5.40;;;;;;;19.27;56.98;100369.17;105882;1253;60428;-77
2023/06/09 00:25:11;;;;;;;8.40;5.20;;;;;;;19.25;56.96;100367.70;106061;1255;65311;-77
2023/06/09 00:27:39;;;;;;;10.30;5.20;;;;;;;19.20;56.95;100365.66;105915;1253;60453;-77
2023/06/09 00:30:07;;;;;;;6.40;5.30;;;;;;;19.13;57.05;100367.89;105877;1257;63697;-77
2023/06/09 00:32:35;;;;;;;6.30;5.40;;;;;;;19.09;57.17;100367.96;105896;1253;60422;-76
2023/06/09 00:35:02;;;;;;;9.70;5.30;;;;;;;19.07;57.35;100364.60;105887;1253;60300;-76
2023/06/09 00:37:30;;;;;;;10.30;6.00;;;;;;;19.05;57.23;100362.48;105797;1252;65354;-77
2023/06/09 00:39:57;;;;;;;8.00;5.90;;;;;;;19.01;57.30;100366.37;105945;1253;60450;-77
2023/06/09 00:42:24;;;;;;;8.50;5.80;;;;;;;18.99;57.39;100363.28;105831;1253;63993;-76
2023/06/09 00:44:51;;;;;;;9.90;6.40;;;;;;;18.98;57.52;100366.06;105819;1253;60431;-77
2023/06/09 00:47:18;;;;;;;8.60;6.60;;;;;;;18.96;57.56;100366.48;105746;1253;60413;-77
2023/06/09 00:49:44;;;;;;;8.60;6.90;;;;;;;18.94;57.67;100362.09;105797;1253;60434;-76
2023/06/09 00:52:11;;;;;;;9.60;6.90;;;;;;;18.92;57.55;100361.76;105747;1253;60476;-77
2023/06/09 00:54:38;;;;;;;8.20;6.80;;;;;;;18.89;57.72;100358.48;105892;1253;63991;-78
2023/06/09 00:57:07;;;;;;;7.80;6.90;;;;;;;18.86;57.71;100360.58;105405;1253;60507;-77
2023/06/09 00:59:34;;;;;;;8.20;6.50;;;;;;;18.82;57.76;100361.63;105701;1255;60388;-77
2023/06/09 01:02:03;;;;;;;9.50;7.00;;;;;;;18.77;57.75;100358.05;105830;1253;64035;-76
2023/06/09 01:04:32;;;;;;;11.10;8.00;;;;;;;18.74;57.72;100358.61;105822;1252;60421;-76
2023/06/09 01:07:07;;;;;;;10.20;7.70;;;;;;;18.70;57.84;100358.11;105822;1257;64191;-77
2023/06/09 01:09:43;;;;;;;10.70;8.10;;;;;;;18.66;58.01;100362.85;105944;1253;60416;-76
2023/06/09 01:12:30;;;;;;;11.60;7.80;;;;;;;18.62;58.17;100361.21;105943;1253;60423;-77
2023/06/09 01:15:18;;;;;;;9.60;7.70;;;;;;;18.56;58.10;100362.08;105816;1257;65012;-77
2023/06/09 01:17:48;;;;;;;9.10;7.80;;;;;;;18.49;58.31;100357.02;105729;1253;60544;-77
2023/06/09 01:20:20;;;;;;;8.70;7.80;;;;;;;18.43;58.64;100359.06;105742;1253;64196;-81
2023/06/09 01:23:04;;;;;;;8.50;7.60;;;;;;;18.40;58.78;100359.65;105656;1253;60465;-80
2023/06/09 01:25:38;;;;;;;9.00;7.20;;;;;;;18.35;59.12;100356.64;105706;1253;60508;-79
2023/06/09 01:28:11;;;;;;;10.20;7.70;;;;;;;18.30;59.16;100357.81;105828;1257;65006;-79
2023/06/09 01:30:40;;;;;;;10.80;7.80;;;;;;;18.25;59.18;100355.20;105745;1253;60429;-78
2023/06/09 01:33:12;;;;;;;9.10;7.20;;;;;;;18.20;59.33;100354.14;105705;1253;62523;-78
2023/06/09 01:35:39;;;;;;;9.10;7.20;;;;;;;18.14;59.29;100347.53;105908;1253;60378;-77
2023/06/09 01:38:06;;;;;;;10.00;8.10;;;;;;;18.09;59.29;100347.21;105741;1253;60439;-79
2023/06/09 01:40:34;;;;;;;10.80;8.10;;;;;;;18.03;59.49;100352.67;105817;1257;65132;-79
2023/06/09 01:43:02;;;;;;;8.50;7.50;;;;;;;17.98;59.75;100353.36;105784;1253;60514;-78
2023/06/09 01:45:29;;;;;;;9.40;8.40;;;;;;;18.00;59.82;100349.81;105787;1258;63956;-77
2023/06/09 01:47:55;;;;;;;9.70;7.90;;;;;;;18.02;59.83;100345.58;105823;1254;60444;-77
2023/06/09 01:50:25;;;;;;;9.60;7.90;;;;;;;18.05;59.64;100346.11;105768;1253;60415;-77
2023/06/09 01:52:56;;;;;;;10.90;8.30;;;;;;;18.04;59.71;100349.05;105836;1253;65735;-77
2023/06/09 01:55:26;;;;;;;9.20;8.30;;;;;;;18.00;59.66;100348.02;105786;1253;60613;-77
2023/06/09 01:57:56;;;;;;;9.80;8.80;;;;;;;17.96;59.74;100353.46;105828;1253;64100;-77
2023/06/09 02:00:24;;;;;;;10.90;9.20;;;;;;;17.92;59.80;100350.55;105744;1252;60449;-77
2023/06/09 02:02:53;;;;;;;9.70;8.70;;;;;;;17.90;59.93;100354.60;105855;1253;60525;-77
2023/06/09 02:05:20;;;;;;;10.20;9.10;;;;;;;17.93;60.04;100354.73;105755;1252;63821;-76
2023/06/09 02:07:48;;;;;;;10.70;8.60;;;;;;;17.94;60.06;100352.64;105671;1253;60529;-77
2023/06/09 02:10:15;;;;;;;12.50;8.80;;;;;;;17.93;60.05;100351.05;105669;1259;64069;-78
2023/06/09 02:12:42;;;;;;;9.80;8.80;;;;;;;17.92;60.09;100352.95;105612;1253;60516;-77
2023/06/09 02:15:09;;;;;;;13.30;9.40;;;;;;;17.92;60.19;100355.90;105733;1253;61030;-78
2023/06/09 02:17:36;;;;;;;12.20;9.40;;;;;;;17.92;60.15;100356.06;105862;1253;63831;-77
2023/06/09 02:20:05;;;;;;;11.10;9.40;;;;;;;17.94;60.33;100359.43;105966;1254;60437;-78
2023/06/09 02:22:32;;;;;;;13.10;9.60;;;;;;;17.96;60.54;100352.92;105762;1251;63798;-77
2023/06/09 02:24:59;;;;;;;9.90;8.80;;;;;;;17.99;60.44;100350.27;105598;1251;60543;-78
2023/06/09 02:27:26;;;;;;;10.30;9.00;;;;;;;18.02;60.36;100349.92;105717;1253;60492;-77
2023/06/09 02:29:53;;;;;;;12.70;9.10;;;;;;;18.05;60.33;100350.70;105653;1258;65295;-77
2023/06/09 02:32:20;;;;;;;10.20;9.00;;;;;;;18.07;60.14;100348.33;105966;1251;60808;-77
2023/06/09 02:34:47;;;;;;;10.30;8.60;;;;;;;18.08;60.16;100348.55;105860;1251;63860;-77
2023/06/09 02:37:13;;;;;;;13.20;9.50;;;;;;;18.08;60.03;100347.45;105709;1251;60472;-78
2023/06/09 02:39:42;;;;;;;10.30;8.80;;;;;;;18.08;59.99;100346.83;105906;1251;60469;-78
2023/06/09 02:42:09;;;;;;;12.10;9.10;;;;;;;18.07;60.14;100347.39;105669;1258;65247;-78
2023/06/09 02:44:41;;;;;;;10.80;8.80;;;;;;;18.10;60.26;100345.88;105651;1253;60455;-77
2023/06/09 02:47:07;;;;;;;11.30;10.10;;;;;;;18.13;60.32;100348.00;105722;1253;62537;-76
2023/06/09 02:49:35;;;;;;;15.10;9.70;;;;;;;18.14;60.50;100349.10;105659;1253;60520;-76
2023/06/09 02:52:02;;;;;;;10.70;9.60;;;;;;;18.17;60.71;100349.24;105670;1253;60439;-77
2023/06/09 02:54:31;;;;;;;13.10;9.50;;;;;;;18.20;60.72;100351.48;105749;1253;65285;-77
2023/06/09 02:56:59;;;;;;;14.00;10.00;;;;;;;18.23;60.63;100353.29;105563;1251;60540;-77
2023/06/09 02:59:26;;;;;;;13.50;9.80;;;;;;;18.25;60.66;100355.17;105638;1253;63737;-77
2023/06/09 03:01:53;;;;;;;11.70;9.90;;;;;;;18.28;60.68;100356.16;105630;1251;60398;-77
2023/06/09 03:04:21;;;;;;;10.90;9.70;;;;;;;18.31;60.79;100360.41;105875;1251;60425;-77
2023/06/09 03:06:50;;;;;;;11.30;10.10;;;;;;;18.33;60.97;100363.21;105852;1253;64896;-77
2023/06/09 03:09:18;;;;;;;14.20;10.00;;;;;;;18.38;61.13;100363.01;105734;1252;60493;-77
2023/06/09 03:11:47;;;;;;;15.90;11.90;;;;;;;18.46;61.36;100362.51;105980;1251;63916;-77
2023/06/09 03:14:14;;;;;;;16.00;12.80;;;;;;;18.53;61.61;100366.30;106005;1253;60345;-77
2023/06/09 03:16:42;;;;;;;15.10;12.60;;;;;;;18.61;61.69;100362.39;105906;1256;60429;-76
2023/06/09 03:19:09;;;;;;;13.50;11.90;;;;;;;18.69;61.81;100365.55;105673;1258;65248;-77
2023/06/09 03:21:36;;;;;;;13.00;11.70;;;;;;;18.78;61.87;100364.03;105656;1257;60498;-78
2023/06/09 03:24:04;;;;;;;15.50;12.60;;;;;;;18.85;62.10;100362.99;105855;1253;63769;-77
2023/06/09 03:26:31;;;;;;;16.00;12.30;;;;;;;18.93;61.87;100364.99;105664;1253;60560;-77
2023/06/09 03:28:58;;;;;;;28.60;18.60;;;;;;;19.01;61.68;100366.55;105657;1251;60584;-78
2023/06/09 03:31:25;;;;;;;37.10;24.80;;;;;;;19.09;61.63;100369.42;105734;1251;63872;-78
2023/06/09 03:33:52;;;;;;;40.60;27.00;;;;;;;19.17;61.61;100369.29;105797;1253;60419;-78
2023/06/09 03:36:21;;;;;;;42.40;27.40;;;;;;;19.25;61.94;100373.23;105669;1256;62636;-76
2023/06/09 03:38:48;;;;;;;36.00;23.90;;;;;;;19.33;62.08;100376.17;105997;1253;60392;-77
2023/06/09 03:41:15;;;;;;;26.90;21.30;;;;;;;19.42;62.13;100375.71;105902;1252;60450;-77
2023/06/09 03:43:42;;;;;;;30.90;20.60;;;;;;;19.51;62.03;100379.99;105783;1255;65160;-77
2023/06/09 03:46:09;;;;;;;21.60;18.30;;;;;;;19.60;62.03;100373.98;105835;1253;60505;-78
2023/06/09 03:48:36;;;;;;;20.30;17.40;;;;;;;19.68;61.87;100374.13;105866;1253;63988;-78
2023/06/09 03:51:04;;;;;;;23.20;18.10;;;;;;;19.77;61.89;100376.55;105681;1254;60623;-77
2023/06/09 03:53:31;;;;;;;21.00;18.20;;;;;;;19.87;61.92;100377.70;105911;1253;60556;-77
2023/06/09 03:55:59;;;;;;;24.20;21.80;;;;;;;19.97;61.96;100379.95;105872;1251;63942;-78
2023/06/09 03:58:28;;;;;;;25.70;22.80;;;;;;;20.07;61.88;100381.30;105726;1257;60448;-79
2023/06/09 04:00:56;;;;;;;26.10;23.20;;;;;;;20.17;61.91;100384.76;105689;1253;64037;-78
2023/06/09 04:03:23;;;;;;;26.70;24.00;;;;;;;20.27;61.85;100385.48;105769;1252;60570;-76
2023/06/09 04:05:51;;;;;;;27.50;24.80;;;;;;;20.37;61.64;100380.91;105804;1253;60531;-76
2023/06/09 04:08:17;;;;;;;25.60;22.90;;;;;;;20.47;61.82;100381.49;105723;1253;60426;-77
2023/06/09 04:10:44;;;;;;;24.10;21.70;;;;;;;20.58;61.83;100386.39;106228;1251;60444;-77
2023/06/09 04:13:11;;;;;;;22.50;20.20;;;;;;;20.69;61.85;100388.96;105928;1253;64020;-76
2023/06/09 04:15:38;;;;;;;20.80;18.70;;;;;;;20.80;61.88;100390.97;105712;1253;60562;-77
2023/06/09 04:18:05;;;;;;;18.70;16.80;;;;;;;20.91;61.90;100389.33;105825;1253;60473;-78
2023/06/09 04:20:36;;;;;;;18.80;16.80;;;;;;;21.01;61.75;100391.64;105743;1255;65194;-77
2023/06/09 04:23:03;;;;;;;19.20;17.20;;;;;;;21.12;61.64;100390.14;105774;1253;60544;-78
2023/06/09 04:25:34;;;;;;;18.50;16.70;;;;;;;21.22;61.53;100389.93;105717;1253;64380;-77
2023/06/09 04:28:05;;;;;;;22.00;16.50;;;;;;;21.33;61.49;100393.21;105879;1253;61129;-77
2023/06/09 04:30:34;;;;;;;26.00;16.10;;;;;;;21.43;61.28;100393.89;105854;1253;62025;-76
2023/06/09 04:33:04;;;;;;;18.80;15.10;;;;;;;21.54;61.24;100393.30;105686;1255;65290;-76
2023/06/09 04:35:31;;;;;;;22.70;16.40;;;;;;;21.65;60.84;100396.08;105859;1253;60477;-75
2023/06/09 04:37:59;;;;;;;17.70;15.00;;;;;;;21.75;60.52;100394.80;105788;1253;63801;-77
2023/06/09 04:40:30;;;;;;;17.70;15.80;;;;;;;21.86;60.28;100392.61;105825;1253;60471;-77
2023/06/09 04:42:59;;;;;;;19.00;14.40;;;;;;;21.97;59.92;100392.91;105767;1252;60553;-77
2023/06/09 04:45:33;;;;;;;21.00;14.80;;;;;;;22.10;59.82;100390.51;105759;1255;65262;-77
2023/06/09 04:48:05;;;;;;;15.00;12.60;;;;;;;22.22;59.69;100389.48;105709;1253;60464;-76
2023/06/09 04:50:33;;;;;;;12.70;10.20;;;;;;;22.34;59.43;100384.40;105777;1253;64011;-77
2023/06/09 04:53:03;;;;;;;17.40;10.90;;;;;;;22.45;59.04;100385.29;105761;1253;60429;-76
2023/06/09 04:55:33;;;;;;;15.30;10.10;;;;;;;22.55;58.60;100386.14;105878;1251;60415;-75
2023/06/09 04:58:00;;;;;;;12.00;9.60;;;;;;;22.64;58.09;100387.06;105702;1253;63868;-76
2023/06/09 05:00:27;;;;;;;11.80;9.10;;;;;;;22.73;57.55;100387.55;105717;1253;60490;-76
2023/06/09 05:02:59;;;;;;;11.70;8.30;;;;;;;22.82;56.97;100388.46;105802;1257;64112;-77
2023/06/09 05:05:26;;;;;;;12.30;7.60;;;;;;;22.91;56.35;100384.52;105740;1253;60364;-78
2023/06/09 05:07:55;;;;;;;12.00;7.50;;;;;;;22.98;55.57;100381.89;105790;1253;60447;-77
2023/06/09 05:10:22;;;;;;;10.50;7.40;;;;;;;23.07;54.82;100379.63;105725;1252;65152;-77
2023/06/09 05:12:50;;;;;;;14.30;7.40;;;;;;;23.17;54.15;100377.20;105880;1256;60934;-78
2023/06/09 05:15:16;;;;;;;12.70;7.10;;;;;;;23.27;53.63;100374.62;105861;1254;64121;-77
2023/06/09 05:17:44;;;;;;;11.60;6.00;;;;;;;23.37;53.28;100376.30;105782;1253;60303;-77
2023/06/09 05:20:11;;;;;;;10.20;5.80;;;;;;;23.47;52.92;100375.42;105874;1253;60537;-76
2023/06/09 05:22:38;;;;;;;13.20;5.90;;;;;;;23.55;52.12;100372.83;105770;1256;65148;-76
2023/06/09 05:25:06;;;;;;;10.50;5.90;;;;;;;23.65;51.33;100370.33;105910;1251;60660;-76
2023/06/09 05:27:33;;;;;;;11.10;6.40;;;;;;;23.74;50.76;100371.70;105944;1251;64011;-77
2023/06/09 05:29:59;;;;;;;12.00;6.70;;;;;;;23.82;50.09;100371.20;105695;1250;60536;-77
2023/06/09 05:32:27;;;;;;;9.50;6.70;;;;;;;23.90;49.27;100374.63;106010;1254;60367;-76
2023/06/09 05:34:53;;;;;;;7.70;6.20;;;;;;;23.98;48.71;100370.64;105697;1256;65007;-77
2023/06/09 05:37:20;;;;;;;11.60;7.10;;;;;;;24.06;48.06;100367.35;105782;1253;60560;-77
2023/06/09 05:39:47;;;;;;;11.50;6.50;;;;;;;24.15;47.19;100364.27;105754;1253;63825;-77
2023/06/09 05:42:15;;;;;;;14.30;7.60;;;;;;;24.25;46.54;100362.02;105756;1254;60476;-76
2023/06/09 05:44:41;;;;;;;17.40;9.60;;;;;;;24.35;45.74;100362.80;105711;1256;60432;-77
2023/06/09 05:47:08;;;;;;;20.50;9.40;;;;;;;24.46;45.30;100361.35;105880;1256;65100;-76
2023/06/09 05:49:39;;;;;;;21.60;10.30;;;;;;;24.56;44.99;100362.64;105972;1255;60453;-76
2023/06/09 05:52:06;;;;;;;17.00;8.00;;;;;;;24.67;44.46;100363.15;105959;1254;63766;-75
2023/06/09 05:54:36;;;;;;;13.10;7.30;;;;;;;24.79;43.58;100362.77;106089;1252;60325;-76
2023/06/09 05:57:03;;;;;;;15.00;5.80;;;;;;;24.93;42.82;100361.95;105961;1256;60422;-76
2023/06/09 05:59:34;;;;;;;10.00;4.90;;;;;;;25.05;42.52;100364.31;105914;1253;64940;-77
2023/06/09 06:02:01;;;;;;;12.80;4.50;;;;;;;25.17;41.95;100363.64;105867;1256;60355;-77
2023/06/09 06:04:29;;;;;;;11.20;3.90;;;;;;;25.26;41.22;100362.12;105796;1253;63944;-78
2023/06/09 06:06:56;;;;;;;10.60;5.30;;;;;;;25.35;40.64;100362.14;105972;1256;60368;-78
2023/06/09 06:09:22;;;;;;;17.60;6.40;;;;;;;25.45;43.05;100360.81;105999;1256;60416;-77
2023/06/09 06:11:49;;;;;;;8.90;6.20;;;;;;;25.55;44.93;100361.36;105972;1256;64907;-78
2023/06/09 06:14:16;;;;;;;10.10;5.90;;;;;;;25.64;45.54;100361.83;105864;1252;60400;-77
2023/06/09 06:16:43;;;;;;;10.50;5.70;;;;;;;25.75;45.70;100364.30;105818;1255;64995;-77
2023/06/09 06:19:11;;;;;;;8.70;5.40;;;;;;;25.86;45.87;100367.71;105740;1256;60432;-76
2023/06/09 06:21:43;;;;;;;9.00;5.40;;;;;;;25.95;45.94;100366.51;105732;1254;60533;-78
2023/06/09 06:24:10;;;;;;;7.20;4.80;;;;;;;26.01;45.30;100363.99;105930;1254;65285;-78
2023/06/09 06:26:37;;;;;;;10.20;4.80;;;;;;;26.10;44.87;100360.54;105892;1256;60542;-78
2023/06/09 06:29:04;;;;;;;8.40;4.50;;;;;;;26.20;43.83;100356.50;105884;1253;63965;-77
2023/06/09 06:31:32;;;;;;;7.40;4.10;;;;;;;26.28;43.26;100356.39;105772;1254;60429;-78
2023/06/09 06:33:59;;;;;;;8.60;4.10;;;;;;;26.38;43.01;100362.33;105708;1253;60472;-77
2023/06/09 06:36:26;;;;;;;5.50;3.90;;;;;;;26.47;42.14;100361.86;105820;1259;65161;-77
2023/06/09 06:38:53;;;;;;;5.30;3.60;;;;;;;26.55;41.04;100358.90;105974;1254;60548;-77
2023/06/09 06:41:20;;;;;;;7.80;3.60;;;;;;;26.62;40.64;100358.85;105988;1253;63856;-78
2023/06/09 06:43:49;;;;;;;6.00;2.90;;;;;;;26.67;40.41;100360.76;106012;1256;60329;-78
2023/06/09 06:46:17;;;;;;;7.00;3.20;;;;;;;26.74;40.09;100361.87;105951;1253;60498;-76
2023/06/09 06:48:43;;;;;;;8.00;3.00;;;;;;;26.80;39.82;100361.21;105713;1253;64072;-78
2023/06/09 06:51:10;;;;;;;7.00;3.40;;;;;;;26.89;40.13;100363.52;105621;1253;60526;-76
2023/06/09 06:53:37;;;;;;;5.80;3.50;;;;;;;26.98;39.79;100359.21;105646;1253;64338;-77
2023/06/09 06:56:04;;;;;;;5.70;3.20;;;;;;;27.05;39.27;100364.48;105675;1257;60365;-77
2023/06/09 06:58:31;;;;;;;4.80;3.00;;;;;;;27.13;39.15;100361.50;105673;1251;192066;-78
2023/06/09 07:00:58;;;;;;;6.30;2.40;;;;;;;27.23;38.74;100358.47;105761;1254;65235;-78
2023/06/09 07:03:26;;;;;;;8.20;2.70;;;;;;;27.32;38.16;100356.54;105612;1253;60436;-77
2023/06/09 07:05:53;;;;;;;6.60;2.80;;;;;;;27.42;37.96;100358.39;105724;1251;64047;-77
2023/06/09 07:08:20;;;;;;;8.80;2.60;;;;;;;27.50;37.38;100358.94;105973;1251;60360;-78
2023/06/09 07:10:47;;;;;;;7.20;2.70;;;;;;;27.57;36.66;100357.91;106026;1252;60450;-78
2023/06/09 07:13:15;;;;;;;4.40;2.60;;;;;;;27.61;36.69;100358.34;105990;1256;65257;-78
2023/06/09 07:15:42;;;;;;;5.90;2.50;;;;;;;27.69;36.87;100357.20;106109;1253;60416;-77
2023/06/09 07:18:11;;;;;;;8.40;2.50;;;;;;;27.76;36.24;100356.23;105755;1254;63845;-77
2023/06/09 07:20:37;;;;;;;6.00;2.20;;;;;;;27.84;35.62;100357.55;105811;1255;60429;-77
2023/06/09 07:23:04;;;;;;;5.20;2.30;;;;;;;27.90;35.60;100357.21;105915;1256;60524;-77
2023/06/09 07:25:32;;;;;;;3.10;2.40;;;;;;;27.96;35.28;100351.33;105780;1251;63935;-77
2023/06/09 07:27:59;;;;;;;5.50;2.60;;;;;;;28.04;34.87;100350.26;105779;1256;60342;-72
2023/06/09 07:30:26;;;;;;;7.70;2.40;;;;;;;28.10;34.73;100347.74;105663;1251;64087;-74
2023/06/09 07:32:53;;;;;;;8.40;2.70;;;;;;;28.15;34.14;100350.67;105663;1256;60468;-74
2023/06/09 07:35:20;;;;;;;4.00;2.80;;;;;;;28.20;33.95;100354.10;105770;1251;60412;-74
2023/06/09 07:37:48;;;;;;;6.90;2.80;;;;;;;28.28;34.05;100355.98;105922;1256;65192;-72
2023/06/09 07:40:15;;;;;;;6.30;2.70;;;;;;;28.39;33.48;100353.84;105916;1255;60338;-73
2023/06/09 07:42:50;;;;;;;3.30;2.30;;;;;;;28.51;32.97;100352.61;105905;1251;63891;-73
2023/06/09 07:45:17;;;;;;;6.90;2.50;;;;;;;28.62;32.76;100350.71;106009;1255;60367;-73
2023/06/09 07:47:44;;;;;;;5.40;2.20;;;;;;;28.74;32.58;100351.45;105912;1254;60412;-75
2023/06/09 07:50:11;;;;;;;9.20;2.60;;;;;;;28.85;32.14;100354.87;105839;1256;65322;-74
2023/06/09 07:52:38;;;;;;;5.20;2.10;;;;;;;28.93;31.51;100355.77;105762;1253;60423;-74
2023/06/09 07:55:06;;;;;;;3.50;2.40;;;;;;;29.00;30.90;100358.83;105760;1256;63832;-74
2023/06/09 07:57:40;;;;;;;4.90;2.00;;;;;;;29.08;31.11;100357.73;105968;1256;60444;-75
2023/06/09 08:00:08;;;;;;;6.20;2.00;;;;;;;29.17;30.79;100360.71;106015;1255;60997;-75
2023/06/09 08:02:41;;;;;;;4.10;1.90;;;;;;;29.28;31.01;100358.52;105999;1256;63843;-75
2023/06/09 08:05:09;;;;;;;3.50;1.90;;;;;;;29.40;30.42;100354.54;105775;1256;60877;-74
2023/06/09 08:07:36;;;;;;;4.80;2.30;;;;;;;29.53;29.89;100354.90;105749;1254;62808;-78
2023/06/09 08:10:03;;;;;;;5.60;2.20;;;;;;;29.61;29.67;100356.19;106014;1256;60444;-76
2023/06/09 08:12:31;;;;;;;8.50;2.90;;;;;;;29.69;29.56;100355.05;105957;1253;60426;-76
2023/06/09 08:14:58;;;;;;;4.50;1.90;;;;;;;29.72;28.74;100357.53;105596;1257;65146;-74
2023/06/09 08:17:24;;;;;;;5.30;1.80;;;;;;;29.75;28.23;100356.78;105904;1257;60498;-74
2023/06/09 08:19:52;;;;;;;2.80;2.00;;;;;;;29.81;28.77;100354.75;106005;1256;63955;-74
2023/06/09 08:22:18;;;;;;;4.20;2.30;;;;;;;29.88;29.10;100355.08;105924;1256;60377;-74
2023/06/09 08:24:46;;;;;;;4.50;2.10;;;;;;;29.97;28.81;100355.20;105997;1254;60406;-76
2023/06/09 08:27:13;;;;;;;6.30;1.80;;;;;;;30.03;27.71;100356.44;105831;1256;66610;-76
2023/06/09 08:29:39;;;;;;;4.00;1.80;;;;;;;30.04;27.53;100357.71;105871;1255;60387;-75
2023/06/09 08:32:06;;;;;;;5.40;1.90;;;;;;;30.01;27.33;100354.11;105730;1253;63906;-73
2023/06/09 08:34:34;;;;;;;7.30;2.30;;;;;;;30.01;27.59;100357.09;106014;1255;60401;-74
2023/06/09 08:37:01;;;;;;;4.70;2.00;;;;;;;30.03;27.16;100357.69;106071;1251;60441;-75
2023/06/09 08:39:27;;;;;;;9.80;2.30;;;;;;;30.02;26.66;100357.97;105891;1255;65237;-76
2023/06/09 08:41:54;;;;;;;4.60;2.20;;;;;;;30.02;26.53;100355.87;105779;1256;60456;-77
2023/06/09 08:44:21;;;;;;;4.80;2.10;;;;;;;30.01;26.94;100358.31;105705;1256;64029;-74
2023/06/09 08:46:48;;;;;;;4.60;2.00;;;;;;;30.06;27.02;100361.67;105809;1258;60473;-76
2023/06/09 08:49:16;;;;;;;7.20;2.00;;;;;;;30.18;26.94;100358.31;105753;1254;60391;-76
2023/06/09 08:51:43;;;;;;;4.20;2.10;;;;;;;30.30;26.51;100360.33;105620;1256;64832;-75
2023/06/09 08:54:13;;;;;;;9.60;2.00;;;;;;;30.38;26.02;100357.70;105744;1255;60499;-75
2023/06/09 08:56:40;;;;;;;7.10;2.10;;;;;;;30.47;26.09;100357.13;105966;1251;65439;-75
2023/06/09 08:59:07;;;;;;;8.70;2.00;;;;;;;30.54;25.62;100356.39;106035;1256;60429;-75
2023/06/09 09:01:35;;;;;;;8.30;1.90;;;;;;;30.57;25.45;100358.71;105861;1254;60512;-75
2023/06/09 09:04:02;;;;;;;6.10;1.80;;;;;;;30.60;25.48;100352.92;105734;1254;63819;-75
2023/06/09 09:06:33;;;;;;;5.30;2.10;;;;;;;30.70;26.02;100351.54;105490;1259;60425;-75
2023/06/09 09:09:00;;;;;;;6.30;2.00;;;;;;;30.85;25.79;100347.52;105687;1253;64486;-75
2023/06/09 09:11:27;;;;;;;5.00;2.80;;;;;;;31.00;25.49;100352.14;105680;1254;60421;-75
2023/06/09 09:13:54;;;;;;;9.40;2.80;;;;;;;31.11;25.33;100347.89;106004;1256;60505;-75
2023/06/09 09:16:21;;;;;;;6.40;2.30;;;;;;;31.18;24.65;100343.01;105877;1259;65047;-75
2023/06/09 09:18:48;;;;;;;7.70;2.40;;;;;;;31.22;24.93;100346.70;105780;1256;60515;-75
2023/06/09 09:21:22;;;;;;;8.10;2.30;;;;;;;31.31;25.15;100348.11;106032;1255;62893;-75
2023/06/09 09:24:11;;;;;;;8.70;2.50;;;;;;;31.40;24.48;100349.45;106048;1256;60370;-75
2023/06/09 09:26:40;;;;;;;6.20;2.40;;;;;;;31.45;24.72;100348.40;105828;1253;60421;-75
2023/06/09 09:29:09;;;;;;;9.50;2.50;;;;;;;31.56;24.87;100344.88;105708;1254;64994;-75
2023/06/09 09:31:39;;;;;;;5.60;2.20;;;;;;;31.71;24.77;100338.66;105692;1257;60501;-76
2023/06/09 09:34:12;;;;;;;5.50;2.00;;;;;;;31.84;25.06;100339.27;105977;1256;63807;-74
2023/06/09 09:36:45;;;;;;;16.60;2.40;;;;;;;31.97;24.67;100340.77;105716;1257;60540;-74
2023/06/09 09:39:12;;;;;;;10.00;3.10;;;;;;;31.99;23.86;100335.11;105784;1256;60505;-74
2023/06/09 09:41:38;;;;;;;7.00;2.20;;;;;;;31.97;23.82;100337.67;105790;1255;65276;-74
2023/06/09 09:44:06;;;;;;;5.30;2.20;;;;;;;32.02;24.01;100335.17;105838;1257;60636;-74
2023/06/09 09:46:39;;;;;;;5.40;2.20;;;;;;;32.09;24.03;100326.04;105974;1255;63950;-75
2023/06/09 09:49:07;;;;;;;4.60;2.00;;;;;;;32.24;23.89;100324.75;105996;1256;60437;-74
2023/06/09 09:51:35;;;;;;;5.40;2.40;;;;;;;32.37;23.60;100327.13;105874;1256;60335;-74
2023/06/09 09:54:01;;;;;;;6.60;2.30;;;;;;;32.47;23.85;100325.85;105745;1254;63921;-74
2023/06/09 09:56:28;;;;;;;7.70;2.70;;;;;;;32.64;24.02;100333.35;105966;1257;60537;-74
2023/06/09 09:58:55;;;;;;;12.20;2.60;;;;;;;32.81;23.63;100333.20;105831;1257;63899;-74
2023/06/09 10:01:26;;;;;;;7.80;2.80;;;;;;;32.95;23.29;100329.30;105989;1253;60459;-74
2023/06/09 10:03:53;;;;;;;9.90;2.60;;;;;;;32.99;22.89;100321.64;105732;1256;60578;-75
2023/06/09 10:06:24;;;;;;;8.00;2.30;;;;;;;33.05;23.24;100328.40;105739;1254;65293;-75
2023/06/09 10:08:51;;;;;;;8.50;2.90;;;;;;;33.19;22.57;100324.52;106002;1258;60472;-75
2023/06/09 10:11:18;;;;;;;9.80;2.50;;;;;;;33.19;22.95;100319.70;105708;1254;64083;-76
2023/06/09 10:13:45;;;;;;;11.10;2.80;;;;;;;33.31;23.37;100318.18;105605;1257;62050;-75
2023/06/09 10:16:12;;;;;;;7.20;2.50;;;;;;;33.47;22.76;100314.04;105959;1256;60409;-75
2023/06/09 10:18:40;;;;;;;9.10;2.80;;;;;;;33.57;22.46;100314.97;105737;1258;65156;-76
2023/06/09 10:21:06;;;;;;;10.30;2.60;;;;;;;33.64;22.95;100313.65;105958;1257;60476;-76
2023/06/09 10:23:33;;;;;;;4.00;2.60;;;;;;;33.77;22.71;100314.29;106002;1256;62895;-73
2023/06/09 10:26:01;;;;;;;6.60;2.90;;;;;;;33.91;22.17;100310.27;105915;1257;60444;-75
2023/06/09 10:28:28;;;;;;;7.20;2.50;;;;;;;33.96;22.34;100302.38;105963;1251;60438;-76
2023/06/09 10:30:55;;;;;;;5.20;2.50;;;;;;;33.94;22.30;100302.71;105867;1255;65234;-75
2023/06/09 10:33:34;;;;;;;4.40;2.40;;;;;;;33.99;22.32;100300.29;105841;1255;60495;-75
2023/06/09 10:36:07;;;;;;;7.30;2.40;;;;;;;34.09;22.29;100298.50;105754;1251;63822;-76
2023/06/09 10:38:44;;;;;;;;;;;;;;;34.16;22.23;100295.95;105853;1256;60460;-76
2023/06/09 10:41:18;;;;;;;3.80;2.40;;;;;;;34.20;22.59;100294.73;105881;1255;60337;-76
2023/06/09 10:44:04;;;;;;;8.70;2.50;;;;;;;34.29;22.63;100297.16;105942;1257;64085;-75
2023/06/09 10:46:47;;;;;;;9.00;2.80;;;;;;;34.36;22.53;100296.54;105723;1256;60430;-77
2023/06/09 10:49:37;;;;;;;8.20;2.60;;;;;;;34.40;21.89;100293.63;105761;1259;63739;-75
2023/06/09 10:52:35;;;;;;;10.50;3.10;;;;;;;34.36;21.73;100286.60;105980;1257;60519;-75
2023/06/09 10:55:10;;;;;;;7.60;2.80;;;;;;;34.32;22.08;100285.73;105835;1254;60527;-76
2023/06/09 10:57:37;;;;;;;9.90;2.80;;;;;;;34.40;22.18;100281.55;105786;1257;63667;-77
2023/06/09 11:00:11;;;;;;;10.00;3.00;;;;;;;34.55;22.25;100276.50;105864;1254;60544;-75
2023/06/09 11:02:43;;;;;;;13.00;3.40;;;;;;;34.70;21.87;100273.50;105737;1258;62858;-76
2023/06/09 11:05:10;;;;;;;11.20;2.90;;;;;;;34.88;22.02;100276.41;106015;1258;60540;-75
2023/06/09 11:07:43;;;;;;;20.80;3.60;;;;;;;35.11;22.12;100273.00;106043;1251;60447;-76
2023/06/09 11:10:14;;;;;;;4.90;2.50;;;;;;;35.28;21.16;100270.83;105816;1258;65012;-75
2023/06/09 11:12:42;;;;;;;7.80;2.60;;;;;;;35.24;20.64;100270.54;106034;1251;60455;-74
2023/06/09 11:15:11;;;;;;;6.90;3.10;;;;;;;35.06;20.54;100265.95;106007;1251;63828;-75
2023/06/09 11:17:42;;;;;;;9.60;2.80;;;;;;;34.90;21.07;100262.67;105778;1251;60446;-76